Time;durP1;ratioP1;P1;durP2;ratioP2;P2;SDS_P1;SDS_P2;PMS_P1;PMS_P2;Temp;Humidity;BMP_temperature;BMP_pressure;BME280_temperature;BME280_humidity;BME280_pressure;Samples;Min_cycle;Max_cycle;Signal;HPM_P1;HPM_P2
2023/12/23 04:00:34;;;;;;;1.20;0.60;;;24.90;30.20;;;;;;5990391;22;46884;-82
2023/12/23 04:02:59;;;;;;;1.00;0.60;;;24.90;30.30;;;;;;4982385;28;45519;-83
2023/12/23 04:05:26;;;;;;;1.23;0.50;;;24.90;30.20;;;;;;4970643;28;46234;-82
2023/12/23 04:07:52;;;;;;;0.60;0.50;;;24.90;30.20;;;;;;4976522;28;45744;-82
2023/12/23 04:10:18;;;;;;;0.60;0.40;;;24.90;30.20;;;;;;5007167;28;45397;-80
2023/12/23 04:12:44;;;;;;;1.03;0.50;;;24.90;30.20;;;;;;5004427;28;45689;-83
2023/12/23 04:15:11;;;;;;;0.60;0.47;;;24.90;30.20;;;;;;5005134;28;47031;-82
2023/12/23 04:17:39;;;;;;;0.55;0.45;;;24.90;30.20;;;;;;4967832;28;45733;-82
2023/12/23 04:20:06;;;;;;;0.85;0.50;;;24.90;30.20;;;;;;4981150;28;45577;-82
2023/12/23 04:22:32;;;;;;;0.95;0.40;;;24.90;30.20;;;;;;5010285;28;45633;-81
2023/12/23 04:24:57;;;;;;;0.97;0.40;;;24.90;30.20;;;;;;4998788;28;47244;-82
2023/12/23 04:27:23;;;;;;;0.60;0.40;;;24.90;30.20;;;;;;5001296;28;45585;-82
2023/12/23 04:29:49;;;;;;;0.50;0.30;;;24.90;30.20;;;;;;4991464;28;45467;-82
2023/12/23 04:32:15;;;;;;;1.30;0.50;;;24.90;30.20;;;;;;4968624;28;45301;-82
2023/12/23 04:34:40;;;;;;;0.77;0.40;;;24.90;30.20;;;;;;5015377;28;45359;-82
2023/12/23 04:37:06;;;;;;;0.73;0.50;;;24.80;30.10;;;;;;4990688;28;45481;-82
2023/12/23 04:39:32;;;;;;;0.90;0.40;;;24.90;30.20;;;;;;4992955;28;47885;-82
2023/12/23 04:41:58;;;;;;;0.45;0.28;;;24.80;30.10;;;;;;5004425;28;45357;-82
2023/12/23 04:44:24;;;;;;;0.40;0.30;;;24.80;30.10;;;;;;4997817;28;46132;-82
2023/12/23 04:46:50;;;;;;;0.45;0.30;;;24.80;30.20;;;;;;5001699;28;45312;-83
2023/12/23 04:49:16;;;;;;;0.53;0.30;;;24.80;30.10;;;;;;4996770;28;45733;-82
2023/12/23 04:51:44;;;;;;;0.30;0.30;;;24.80;30.20;;;;;;5006538;28;45629;-82
2023/12/23 04:54:32;;;;;;;0.52;0.22;;;24.80;30.10;;;;;;5008590;28;46955;-82
2023/12/23 04:56:58;;;;;;;0.65;0.30;;;24.80;30.10;;;;;;4991573;28;45638;-82
2023/12/23 04:59:23;;;;;;;0.45;0.30;;;24.80;30.10;;;;;;4993614;28;45473;-82
2023/12/23 05:01:50;;;;;;;0.40;0.20;;;24.80;30.10;;;;;;4961685;28;45925;-82
2023/12/23 05:04:16;;;;;;;0.40;0.30;;;24.80;30.10;;;;;;5008270;28;46242;-82
2023/12/23 05:06:42;;;;;;;0.50;0.20;;;24.80;30.10;;;;;;4994860;28;45469;-82
2023/12/23 05:09:08;;;;;;;0.40;0.20;;;24.80;30.10;;;;;;4999288;28;45731;-81
2023/12/23 05:11:34;;;;;;;0.40;0.20;;;24.80;30.20;;;;;;5023418;28;44665;-82
2023/12/23 05:13:59;;;;;;;0.30;0.20;;;24.80;30.20;;;;;;5011345;28;45442;-82
2023/12/23 05:16:26;;;;;;;0.37;0.20;;;24.80;30.20;;;;;;4983018;28;45538;-82
2023/12/23 05:18:52;;;;;;;0.40;0.20;;;24.80;30.20;;;;;;4995003;28;45327;-82
2023/12/23 05:21:18;;;;;;;0.28;0.20;;;24.80;30.20;;;;;;4999805;28;45582;-82
2023/12/23 05:23:43;;;;;;;0.70;0.30;;;24.80;30.20;;;;;;5009875;28;46480;-82
2023/12/23 05:26:09;;;;;;;0.60;0.20;;;24.80;30.20;;;;;;4990776;28;44669;-81
2023/12/23 05:28:35;;;;;;;0.30;0.20;;;24.80;30.20;;;;;;4958739;28;45459;-82
2023/12/23 05:31:00;;;;;;;0.30;0.10;;;24.80;30.20;;;;;;4983898;28;45766;-82
2023/12/23 05:33:26;;;;;;;0.60;0.30;;;24.80;30.20;;;;;;4981267;28;46888;-82
2023/12/23 05:35:52;;;;;;;0.20;0.10;;;24.70;30.10;;;;;;4991149;28;45839;-82
2023/12/23 05:38:18;;;;;;;0.38;0.20;;;24.80;30.20;;;;;;5003892;28;45862;-82
2023/12/23 05:40:44;;;;;;;0.60;0.20;;;24.80;30.20;;;;;;4985864;28;45607;-82
2023/12/23 05:43:09;;;;;;;0.30;0.20;;;24.70;30.20;;;;;;4994644;28;47059;-82
2023/12/23 05:45:35;;;;;;;0.40;0.20;;;24.70;30.20;;;;;;5002294;28;44995;-82
2023/12/23 05:48:01;;;;;;;0.20;0.13;;;24.70;30.20;;;;;;5010558;28;45202;-82
2023/12/23 05:50:27;;;;;;;0.30;0.10;;;24.70;30.20;;;;;;4990205;28;45467;-81
2023/12/23 05:52:53;;;;;;;0.50;0.20;;;24.70;30.20;;;;;;4993177;28;46220;-81
2023/12/23 05:55:19;;;;;;;0.80;0.20;;;24.70;30.20;;;;;;4999991;28;45797;-82
2023/12/23 05:57:45;;;;;;;0.30;0.20;;;24.70;30.30;;;;;;5003524;28;45606;-82
2023/12/23 06:00:13;;;;;;;0.40;0.20;;;24.60;30.20;;;;;;4988104;28;45527;-83
2023/12/23 06:02:38;;;;;;;0.10;0.10;;;24.60;30.30;;;;;;4956380;28;45765;-82
2023/12/23 06:05:04;;;;;;;0.70;0.10;;;24.60;30.30;;;;;;4969542;28;44988;-82
2023/12/23 06:07:31;;;;;;;0.77;0.25;;;24.60;30.40;;;;;;4970840;28;45367;-82
2023/12/23 06:09:57;;;;;;;0.20;0.10;;;24.60;30.40;;;;;;4947829;28;45426;-82
2023/12/23 06:12:23;;;;;;;0.40;0.20;;;24.60;30.40;;;;;;4943156;28;47821;-81
2023/12/23 06:14:50;;;;;;;0.30;0.20;;;24.60;30.40;;;;;;4979230;28;45352;-82
2023/12/23 06:17:16;;;;;;;0.10;0.10;;;24.50;30.40;;;;;;4962412;28;45499;-82
2023/12/23 06:19:43;;;;;;;0.63;0.30;;;24.50;30.40;;;;;;4964391;28;59591;-82
2023/12/23 06:22:09;;;;;;;0.35;0.30;;;24.50;30.50;;;;;;4956706;28;46625;-82
2023/12/23 06:24:35;;;;;;;0.85;0.25;;;24.50;30.50;;;;;;4934716;28;45222;-82
2023/12/23 06:27:01;;;;;;;0.70;0.40;;;24.50;30.50;;;;;;4969266;28;45559;-81
2023/12/23 06:29:27;;;;;;;0.85;0.28;;;24.40;31.20;;;;;;4964670;28;45537;-82
2023/12/23 06:31:53;;;;;;;0.70;0.20;;;24.40;30.60;;;;;;4945021;28;46173;-83
2023/12/23 06:34:18;;;;;;;0.25;0.25;;;24.40;30.60;;;;;;4935085;28;45877;-82
2023/12/23 06:36:44;;;;;;;0.63;0.30;;;24.40;30.60;;;;;;4917692;28;44736;-82
2023/12/23 06:39:10;;;;;;;0.93;0.30;;;24.40;30.70;;;;;;4979411;28;44973;-82
2023/12/23 06:41:36;;;;;;;1.33;0.40;;;24.40;30.70;;;;;;4950378;28;45585;-82
2023/12/23 06:44:02;;;;;;;0.63;0.30;;;24.40;30.70;;;;;;4954269;28;45509;-82
2023/12/23 06:46:28;;;;;;;0.93;0.30;;;24.40;30.80;;;;;;4961195;28;45655;-81
2023/12/23 06:48:54;;;;;;;0.95;0.40;;;24.30;30.70;;;;;;4979232;28;45191;-82
2023/12/23 06:51:20;;;;;;;0.70;0.40;;;24.40;30.80;;;;;;4945619;28;47307;-83
2023/12/23 06:53:48;;;;;;;0.65;0.25;;;24.30;30.80;;;;;;4966920;28;45427;-82
2023/12/23 06:56:15;;;;;;;0.55;0.30;;;24.30;30.80;;;;;;4956996;28;45153;-82
2023/12/23 06:58:42;;;;;;;0.70;0.40;;;24.30;30.80;;;;;;4980540;28;45547;-81
2023/12/23 07:01:07;;;;;;;1.20;0.40;;;24.30;30.90;;;;;;4940756;28;45200;-82
2023/12/23 07:03:34;;;;;;;0.77;0.30;;;24.20;30.90;;;;;;4981159;28;45458;-83
2023/12/23 07:06:00;;;;;;;0.70;0.30;;;24.30;31.00;;;;;;5001675;28;45259;-82
2023/12/23 07:08:27;;;;;;;0.90;0.40;;;24.20;31.00;;;;;;4992792;28;46297;-82
2023/12/23 07:10:53;;;;;;;0.50;0.30;;;24.30;31.00;;;;;;5017530;28;46138;-83
2023/12/23 07:13:19;;;;;;;0.60;0.32;;;24.20;31.00;;;;;;4988734;28;44833;-82
2023/12/23 07:15:45;;;;;;;0.50;0.40;;;24.20;31.10;;;;;;4979543;28;45337;-82
2023/12/23 07:18:10;;;;;;;1.05;0.43;;;24.10;31.20;;;;;;4982064;28;45852;-83
2023/12/23 07:20:36;;;;;;;1.13;0.43;;;24.10;31.20;;;;;;4981641;28;47094;-82
2023/12/23 07:23:02;;;;;;;0.57;0.30;;;24.10;31.20;;;;;;4973047;28;45575;-82
2023/12/23 07:25:28;;;;;;;0.60;0.30;;;24.10;31.20;;;;;;4985305;28;45620;-81
2023/12/23 07:27:54;;;;;;;0.43;0.30;;;24.10;31.20;;;;;;4997416;28;45587;-82
2023/12/23 07:30:19;;;;;;;0.82;0.30;;;24.10;31.30;;;;;;5016774;28;45660;-81
2023/12/23 07:32:46;;;;;;;1.00;0.37;;;24.10;31.30;;;;;;4997224;28;44731;-82
2023/12/23 07:35:11;;;;;;;0.38;0.28;;;24.10;31.30;;;;;;5002935;28;44981;-83
2023/12/23 07:37:38;;;;;;;1.00;0.40;;;24.00;31.30;;;;;;5003650;28;45208;-82
2023/12/23 07:40:05;;;;;;;0.43;0.28;;;24.00;31.30;;;;;;5016576;28;46050;-82
2023/12/23 07:42:31;;;;;;;0.60;0.30;;;24.00;31.40;;;;;;5001727;28;45578;-82
2023/12/23 07:44:57;;;;;;;1.15;0.45;;;24.00;31.40;;;;;;4980999;28;45127;-82
2023/12/23 07:47:23;;;;;;;0.82;0.38;;;24.00;31.40;;;;;;4989657;28;44954;-82
2023/12/23 07:49:49;;;;;;;2.10;0.40;;;24.00;31.40;;;;;;5024308;28;47536;-82
2023/12/23 07:52:15;;;;;;;2.00;0.40;;;24.00;31.50;;;;;;4972439;28;45560;-82
2023/12/23 07:54:42;;;;;;;1.35;0.40;;;24.00;31.50;;;;;;4992326;28;45514;-82
2023/12/23 07:57:08;;;;;;;3.70;0.40;;;24.00;31.60;;;;;;4981222;28;46098;-82
2023/12/23 07:59:34;;;;;;;1.88;0.47;;;23.90;31.50;;;;;;5017522;28;45660;-82
2023/12/23 08:02:00;;;;;;;1.10;0.40;;;23.90;31.60;;;;;;4997064;28;45309;-81
2023/12/23 08:04:26;;;;;;;0.65;0.30;;;23.90;31.60;;;;;;4997584;28;45833;-82
2023/12/23 08:06:52;;;;;;;1.45;0.50;;;23.90;31.60;;;;;;5020861;28;45895;-83
2023/12/23 08:09:18;;;;;;;1.00;0.50;;;23.90;31.70;;;;;;4992700;28;46332;-82
2023/12/23 08:11:44;;;;;;;1.02;0.50;;;23.90;31.60;;;;;;4998773;28;45918;-82
2023/12/23 08:14:11;;;;;;;0.93;0.40;;;23.90;31.70;;;;;;4992113;28;45122;-82
2023/12/23 08:16:37;;;;;;;0.77;0.50;;;23.80;31.60;;;;;;4987240;28;45577;-83
2023/12/23 08:19:03;;;;;;;1.10;0.40;;;23.80;31.70;;;;;;5008606;28;46616;-82
2023/12/23 08:21:29;;;;;;;0.60;0.30;;;23.90;31.70;;;;;;4987095;28;45867;-82
2023/12/23 08:23:55;;;;;;;0.60;0.43;;;23.80;31.70;;;;;;4992617;28;45258;-82
2023/12/23 08:26:20;;;;;;;0.80;0.50;;;23.80;31.70;;;;;;4972346;28;45600;-82
2023/12/23 08:28:46;;;;;;;0.88;0.40;;;23.80;31.70;;;;;;5026875;28;45444;-82
2023/12/23 08:31:12;;;;;;;1.17;0.60;;;23.80;31.80;;;;;;4977437;28;45689;-82
2023/12/23 08:33:38;;;;;;;1.10;0.43;;;23.70;31.70;;;;;;4980904;28;46018;-82
2023/12/23 08:36:04;;;;;;;0.93;0.47;;;23.80;31.80;;;;;;4997450;28;45261;-82
2023/12/23 08:38:31;;;;;;;0.85;0.50;;;23.70;31.80;;;;;;4994750;28;46656;-82
2023/12/23 08:40:56;;;;;;;0.35;0.30;;;23.70;31.80;;;;;;5000350;28;45816;-82
2023/12/23 08:43:23;;;;;;;1.87;0.40;;;23.70;31.80;;;;;;5027628;28;44973;-82
2023/12/23 08:45:49;;;;;;;1.13;0.43;;;23.70;31.80;;;;;;4971104;28;45819;-82
2023/12/23 08:48:15;;;;;;;0.70;0.40;;;23.70;31.80;;;;;;5001153;28;48051;-82
2023/12/23 08:50:43;;;;;;;0.40;0.20;;;23.70;31.90;;;;;;4986077;28;45967;-82
2023/12/23 08:53:09;;;;;;;0.60;0.40;;;23.70;31.90;;;;;;5009341;28;45493;-83
2023/12/23 08:55:34;;;;;;;0.90;0.40;;;23.70;32.00;;;;;;4971712;28;45638;-82
2023/12/23 08:58:00;;;;;;;0.77;0.40;;;23.70;32.00;;;;;;4974629;28;47321;-81
2023/12/23 09:00:26;;;;;;;0.88;0.47;;;23.70;32.00;;;;;;4984838;28;45701;-83
2023/12/23 09:02:52;;;;;;;0.90;0.45;;;23.60;32.00;;;;;;5007680;28;45448;-82
2023/12/23 09:05:18;;;;;;;0.70;0.30;;;23.60;32.00;;;;;;4991803;28;44804;-83
2023/12/23 09:07:44;;;;;;;0.77;0.30;;;23.60;32.10;;;;;;4991473;28;45588;-82
2023/12/23 09:10:11;;;;;;;0.65;0.43;;;23.60;32.20;;;;;;4987708;28;45247;-83
2023/12/23 09:12:38;;;;;;;0.70;0.30;;;23.60;32.20;;;;;;5001228;28;45468;-82
2023/12/23 09:15:05;;;;;;;0.50;0.30;;;23.50;32.10;;;;;;4986437;28;45537;-81
2023/12/23 09:17:31;;;;;;;0.73;0.40;;;23.50;32.10;;;;;;4986158;28;46733;-82
2023/12/23 09:47:44;;;;;;;0.52;0.50;;;23.40;32.40;;;;;;5000119;28;45280;-82
2023/12/23 09:50:10;;;;;;;0.50;0.30;;;23.40;32.50;;;;;;5000689;28;46156;-82
2023/12/23 09:52:36;;;;;;;0.57;0.30;;;23.40;32.50;;;;;;4973116;28;45215;-82
2023/12/23 09:55:04;;;;;;;1.63;0.47;;;23.30;32.50;;;;;;4975837;28;45959;-82
2023/12/23 09:57:34;;;;;;;0.70;0.50;;;23.40;32.50;;;;;;4987641;28;45351;-82
2023/12/23 10:00:00;;;;;;;0.70;0.40;;;23.30;32.50;;;;;;5023545;28;46426;-83
2023/12/23 10:02:27;;;;;;;0.57;0.40;;;23.30;32.50;;;;;;4969534;28;45603;-82
2023/12/23 10:04:53;;;;;;;1.20;0.40;;;23.30;32.50;;;;;;5002294;28;47599;-82
2023/12/23 10:07:19;;;;;;;0.70;0.47;;;23.30;32.50;;;;;;4995737;28;45500;-82
2023/12/23 10:09:47;;;;;;;0.50;0.40;;;23.30;32.60;;;;;;4980905;28;46219;-82
2023/12/23 10:12:13;;;;;;;0.80;0.40;;;23.30;32.60;;;;;;4957068;28;45326;-82
2023/12/23 10:14:41;;;;;;;0.80;0.40;;;23.30;32.70;;;;;;4990987;28;45911;-82
2023/12/23 10:17:07;;;;;;;0.97;0.40;;;23.30;32.70;;;;;;4995442;28;45365;-83
2023/12/23 10:19:34;;;;;;;0.82;0.43;;;23.30;32.70;;;;;;4985361;28;45804;-82
2023/12/23 10:22:00;;;;;;;0.90;0.30;;;23.30;32.80;;;;;;4974433;28;45415;-82
2023/12/23 10:24:26;;;;;;;0.32;0.30;;;23.30;32.90;;;;;;4994077;28;46111;-81
2023/12/23 10:26:52;;;;;;;1.70;0.40;;;23.20;32.80;;;;;;4960850;28;44865;-82
2023/12/23 10:29:18;;;;;;;0.47;0.30;;;23.20;32.80;;;;;;4982417;28;45597;-82
2023/12/23 10:31:45;;;;;;;0.75;0.20;;;23.30;32.90;;;;;;4963447;28;45644;-82
2023/12/23 10:34:11;;;;;;;0.68;0.30;;;23.20;32.90;;;;;;4960263;28;46137;-82
2023/12/23 10:36:41;;;;;;;0.20;0.20;;;23.20;32.90;;;;;;4965561;28;45467;-82
2023/12/23 10:39:10;;;;;;;0.68;0.30;;;23.20;33.00;;;;;;4991824;28;45340;-82
2023/12/23 10:41:51;;;;;;;0.60;0.40;;;23.20;33.00;;;;;;4979053;28;45586;-82
2023/12/23 10:44:17;;;;;;;0.47;0.30;;;23.20;33.00;;;;;;4997012;28;46774;-82
2023/12/23 10:46:43;;;;;;;0.40;0.20;;;23.20;33.00;;;;;;4978320;28;45290;-81
2023/12/23 10:49:09;;;;;;;0.20;0.17;;;23.10;33.10;;;;;;4985706;28;45309;-82
2023/12/23 10:51:35;;;;;;;0.55;0.30;;;23.10;33.10;;;;;;4978119;28;45789;-81
2023/12/23 10:54:01;;;;;;;0.77;0.30;;;23.10;33.10;;;;;;4966836;28;45537;-82
2023/12/23 10:56:26;;;;;;;0.47;0.30;;;23.10;33.20;;;;;;4978743;28;45266;-81
2023/12/23 10:58:54;;;;;;;0.30;0.23;;;23.10;33.20;;;;;;4973326;28;45423;-81
2023/12/23 11:01:20;;;;;;;0.50;0.20;;;23.10;33.30;;;;;;4948062;28;45454;-81
2023/12/23 11:03:46;;;;;;;0.80;0.30;;;23.10;33.20;;;;;;4959844;28;47189;-82
2023/12/23 11:06:13;;;;;;;0.80;0.25;;;23.10;33.20;;;;;;4962465;28;45513;-81
2023/12/23 11:08:39;;;;;;;0.35;0.35;;;23.10;33.30;;;;;;4979201;28;45100;-82
2023/12/23 11:11:05;;;;;;;0.43;0.43;;;23.10;33.40;;;;;;4939062;28;45296;-82
2023/12/23 11:13:31;;;;;;;0.45;0.20;;;23.10;33.30;;;;;;4963501;28;45439;-82
2023/12/23 11:15:57;;;;;;;0.50;0.30;;;23.00;33.40;;;;;;4957591;28;45292;-82
2023/12/23 11:18:23;;;;;;;1.50;0.43;;;23.00;33.40;;;;;;4944762;28;45594;-82
2023/12/23 11:20:49;;;;;;;0.80;0.50;;;23.00;33.40;;;;;;4962561;28;45253;-82
2023/12/23 11:23:30;;;;;;;0.32;0.30;;;23.00;33.40;;;;;;4949495;28;45634;-82
2023/12/23 11:25:56;;;;;;;0.85;0.55;;;23.00;33.50;;;;;;4978257;28;45266;-82
2023/12/23 11:28:22;;;;;;;0.52;0.50;;;23.00;34.10;;;;;;4961376;28;45352;-81
2023/12/23 11:30:55;;;;;;;0.65;0.40;;;23.00;33.50;;;;;;4949524;28;45334;-82
2023/12/23 11:33:22;;;;;;;0.90;0.30;;;23.00;33.60;;;;;;4956147;28;46854;-82
2023/12/23 11:36:00;;;;;;;0.30;0.25;;;22.90;33.50;;;;;;4957678;28;45266;-82
2023/12/23 11:38:27;;;;;;;0.30;0.30;;;23.00;33.60;;;;;;4958695;28;45622;-81
2023/12/23 11:40:53;;;;;;;0.73;0.40;;;23.00;33.60;;;;;;4964058;28;45371;-82
2023/12/23 11:43:19;;;;;;;0.35;0.20;;;23.00;33.60;;;;;;4949215;28;46942;-82
2023/12/23 11:45:45;;;;;;;0.52;0.40;;;23.00;33.60;;;;;;4954835;28;45317;-81
2023/12/23 11:48:11;;;;;;;0.52;0.30;;;22.90;33.50;;;;;;4942491;28;45375;-81
2023/12/23 11:50:39;;;;;;;1.02;0.30;;;22.90;33.60;;;;;;4927968;28;45469;-82
2023/12/23 11:53:05;;;;;;;0.40;0.30;;;22.90;33.60;;;;;;4920630;28;45541;-81
2023/12/23 11:55:31;;;;;;;0.68;0.32;;;22.90;33.70;;;;;;4960711;28;45533;-82
2023/12/23 11:57:57;;;;;;;0.80;0.40;;;22.90;33.70;;;;;;4950812;28;45022;-82
2023/12/23 12:00:23;;;;;;;0.28;0.20;;;22.90;33.70;;;;;;4926003;28;45747;-81
2023/12/23 12:02:49;;;;;;;0.50;0.50;;;22.90;33.70;;;;;;4942087;28;46181;-81
2023/12/23 12:05:15;;;;;;;0.75;0.43;;;22.90;33.70;;;;;;4961230;28;45725;-81
2023/12/23 12:07:41;;;;;;;0.40;0.30;;;22.90;33.70;;;;;;4964564;28;46881;-82
2023/12/23 12:10:07;;;;;;;1.37;0.63;;;22.90;33.70;;;;;;4965097;28;45592;-81
2023/12/23 12:12:33;;;;;;;1.20;0.52;;;22.90;34.40;;;;;;4930772;28;47081;-82
2023/12/23 12:14:59;;;;;;;1.23;0.50;;;22.90;34.30;;;;;;4947612;28;45908;-82
2023/12/23 12:17:25;;;;;;;0.77;0.50;;;22.80;33.70;;;;;;4951217;28;45744;-81
2023/12/23 12:19:51;;;;;;;1.98;0.85;;;22.90;33.70;;;;;;4964626;28;45660;-82
2023/12/23 12:22:17;;;;;;;1.67;0.90;;;22.90;33.80;;;;;;4927808;28;46094;-82
2023/12/23 12:24:43;;;;;;;1.50;0.93;;;22.80;33.80;;;;;;4963185;28;45382;-81
2023/12/23 12:27:09;;;;;;;1.23;0.70;;;22.80;33.80;;;;;;4943760;28;45040;-83
2023/12/23 12:29:35;;;;;;;1.25;0.77;;;22.80;33.80;;;;;;4950363;28;45374;-82
2023/12/23 12:32:01;;;;;;;1.07;0.90;;;22.80;34.50;;;;;;4950309;28;46254;-81
2023/12/23 12:34:28;;;;;;;1.45;0.90;;;22.80;33.90;;;;;;4948697;28;45604;-82
2023/12/23 12:36:53;;;;;;;1.58;0.90;;;22.80;33.90;;;;;;4953936;28;44953;-81
2023/12/23 12:39:20;;;;;;;1.30;0.70;;;22.80;34.00;;;;;;4938510;28;45781;-82
2023/12/23 12:41:48;;;;;;;1.42;0.80;;;22.70;33.90;;;;;;4957376;28;47147;-82
2023/12/23 12:44:13;;;;;;;2.28;0.90;;;22.70;33.90;;;;;;4948393;28;45485;-81
2023/12/23 12:46:39;;;;;;;1.00;0.80;;;22.70;33.90;;;;;;4923541;28;45523;-82
2023/12/23 12:49:05;;;;;;;1.27;0.77;;;22.70;34.00;;;;;;4961930;28;45795;-82
2023/12/23 12:51:31;;;;;;;1.33;0.82;;;22.70;34.00;;;;;;4924917;28;45634;-81
2023/12/23 12:53:57;;;;;;;1.50;0.80;;;22.70;34.00;;;;;;4934856;28;45298;-82
2023/12/23 12:56:23;;;;;;;0.98;0.60;;;22.70;34.10;;;;;;4924454;28;45326;-81
2023/12/23 12:58:52;;;;;;;1.73;0.68;;;22.70;34.10;;;;;;4967263;28;45543;-82
2023/12/23 13:01:18;;;;;;;1.52;0.68;;;22.70;34.10;;;;;;4930247;28;45638;-82
2023/12/23 13:03:45;;;;;;;1.00;0.70;;;22.70;34.10;;;;;;4990814;28;44990;-82
2023/12/23 13:06:11;;;;;;;0.80;0.60;;;22.70;34.70;;;;;;4980488;28;45522;-81
2023/12/23 13:08:37;;;;;;;0.85;0.60;;;22.70;34.10;;;;;;4981386;28;45252;-82
2023/12/23 13:11:02;;;;;;;1.02;0.50;;;22.60;34.10;;;;;;4997552;28;46252;-82
2023/12/23 13:13:28;;;;;;;1.17;0.60;;;22.60;34.10;;;;;;4959139;28;44908;-81
2023/12/23 13:15:55;;;;;;;0.70;0.50;;;22.60;34.10;;;;;;4998751;28;45480;-82
2023/12/23 13:18:21;;;;;;;1.50;0.52;;;22.60;34.10;;;;;;4997728;28;45538;-82
2023/12/23 13:20:47;;;;;;;0.70;0.60;;;22.60;34.20;;;;;;4986106;28;47030;-82
2023/12/23 13:23:12;;;;;;;1.50;0.50;;;22.60;34.10;;;;;;4988623;28;46297;-82
2023/12/23 13:25:38;;;;;;;0.73;0.47;;;22.60;34.20;;;;;;4986008;28;45631;-82
2023/12/23 13:28:05;;;;;;;0.80;0.50;;;22.60;34.20;;;;;;4984181;28;45435;-82
2023/12/23 13:30:31;;;;;;;0.40;0.40;;;22.60;34.20;;;;;;4961916;28;46105;-81
2023/12/23 13:32:56;;;;;;;0.80;0.40;;;22.60;34.20;;;;;;5003841;28;45022;-82
2023/12/23 13:35:23;;;;;;;0.70;0.50;;;22.60;34.20;;;;;;4970598;28;45445;-82
2023/12/23 13:37:49;;;;;;;0.60;0.40;;;22.60;34.30;;;;;;5005373;28;45112;-82
2023/12/23 13:40:15;;;;;;;1.00;0.40;;;22.60;34.20;;;;;;5000590;28;46048;-82
2023/12/23 13:42:40;;;;;;;0.53;0.30;;;22.60;34.20;;;;;;4973575;28;45008;-82
2023/12/23 13:45:06;;;;;;;0.60;0.40;;;22.60;34.20;;;;;;4978419;28;45241;-81
2023/12/23 13:47:32;;;;;;;0.37;0.30;;;22.60;34.20;;;;;;4999399;28;44708;-84
2023/12/23 13:49:58;;;;;;;0.85;0.38;;;22.50;34.20;;;;;;4973118;28;45973;-82
2023/12/23 13:52:24;;;;;;;0.50;0.40;;;22.60;34.30;;;;;;4990098;28;45606;-81
2023/12/23 13:54:50;;;;;;;0.55;0.38;;;22.60;34.30;;;;;;5017879;28;45348;-82
2023/12/23 13:57:16;;;;;;;0.60;0.40;;;22.50;34.30;;;;;;4984472;28;45560;-82
2023/12/23 13:59:42;;;;;;;0.57;0.30;;;22.50;34.30;;;;;;4973989;28;46448;-84
2023/12/23 14:02:08;;;;;;;0.57;0.30;;;22.50;34.30;;;;;;5005937;28;45320;-82
2023/12/23 14:04:36;;;;;;;0.60;0.30;;;22.50;34.30;;;;;;5004345;28;44705;-81
2023/12/23 14:07:02;;;;;;;1.08;0.28;;;22.50;34.30;;;;;;4982514;28;45523;-82
2023/12/23 14:09:29;;;;;;;0.57;0.30;;;22.50;34.40;;;;;;4983446;28;45219;-82
2023/12/23 14:11:56;;;;;;;0.70;0.45;;;22.50;34.30;;;;;;4960519;28;45827;-81
2023/12/23 14:14:22;;;;;;;0.55;0.40;;;22.50;34.40;;;;;;5004067;28;45423;-82
2023/12/23 14:16:48;;;;;;;0.47;0.30;;;22.50;34.40;;;;;;5015821;28;45390;-81
2023/12/23 14:19:13;;;;;;;0.68;0.35;;;22.50;34.40;;;;;;4990519;28;47314;-82
2023/12/23 14:21:40;;;;;;;0.40;0.25;;;22.50;34.50;;;;;;4985994;28;45613;-82
2023/12/23 14:24:06;;;;;;;0.73;0.30;;;22.50;34.40;;;;;;5024694;28;45802;-82
2023/12/23 14:26:32;;;;;;;0.63;0.30;;;22.50;34.50;;;;;;5000695;28;45170;-81
2023/12/23 14:28:59;;;;;;;0.50;0.30;;;22.50;34.50;;;;;;4981962;28;47240;-82
2023/12/23 14:31:25;;;;;;;0.60;0.40;;;22.50;34.50;;;;;;4993187;28;46181;-82
2023/12/23 14:33:53;;;;;;;0.50;0.30;;;22.50;34.50;;;;;;4987863;28;44650;-82
2023/12/23 14:36:19;;;;;;;0.70;0.35;;;22.50;34.50;;;;;;4987198;28;45528;-82
2023/12/23 14:38:45;;;;;;;0.28;0.20;;;22.50;34.50;;;;;;4984959;28;46398;-82
2023/12/23 14:41:11;;;;;;;0.80;0.50;;;22.50;34.50;;;;;;4984729;28;46177;-82
2023/12/23 14:43:37;;;;;;;0.68;0.40;;;22.50;34.60;;;;;;4976631;28;45302;-82
2023/12/23 14:46:03;;;;;;;0.90;0.50;;;22.50;34.60;;;;;;4968172;28;45461;-82
2023/12/23 14:48:29;;;;;;;0.37;0.30;;;22.50;34.60;;;;;;4970237;28;46111;-82
2023/12/23 14:50:55;;;;;;;0.90;0.40;;;22.50;34.60;;;;;;4980866;28;45355;-82
2023/12/23 14:53:21;;;;;;;0.40;0.30;;;22.40;34.60;;;;;;5000532;28;45255;-82
2023/12/23 14:55:47;;;;;;;0.60;0.43;;;22.40;34.60;;;;;;4997342;28;45872;-82
2023/12/23 14:58:13;;;;;;;1.10;0.40;;;22.40;34.60;;;;;;4989084;28;47040;-81
2023/12/23 15:00:39;;;;;;;0.40;0.30;;;22.40;34.60;;;;;;4978482;28;45532;-81
2023/12/23 15:03:06;;;;;;;0.55;0.25;;;22.40;34.60;;;;;;4971812;28;45378;-82
2023/12/23 15:05:31;;;;;;;0.65;0.38;;;22.40;34.70;;;;;;5002136;28;44936;-82
2023/12/23 15:07:57;;;;;;;1.27;0.30;;;22.30;34.60;;;;;;4999723;28;46378;-82
2023/12/23 15:10:23;;;;;;;0.95;0.40;;;22.40;34.70;;;;;;5019004;28;45406;-82
2023/12/23 15:12:49;;;;;;;0.50;0.30;;;22.30;34.60;;;;;;4988644;28;45434;-82
2023/12/23 15:15:16;;;;;;;0.50;0.30;;;22.30;34.60;;;;;;5001491;28;44903;-82
2023/12/23 15:17:41;;;;;;;0.50;0.30;;;22.40;34.70;;;;;;4985723;28;46422;-82
2023/12/23 15:20:08;;;;;;;0.43;0.30;;;22.30;34.70;;;;;;4973424;28;45683;-82
2023/12/23 15:22:35;;;;;;;0.60;0.40;;;22.30;34.60;;;;;;4986449;28;45691;-82
2023/12/23 15:25:00;;;;;;;0.50;0.30;;;22.30;34.70;;;;;;5004541;28;45329;-82
2023/12/23 15:27:27;;;;;;;0.70;0.40;;;22.30;34.70;;;;;;5002802;28;46433;-82
2023/12/23 15:29:54;;;;;;;0.60;0.30;;;22.30;34.70;;;;;;5007561;28;45984;-82
2023/12/23 15:32:19;;;;;;;0.40;0.28;;;22.30;34.70;;;;;;4978124;28;45233;-82
2023/12/23 15:34:45;;;;;;;0.40;0.30;;;22.30;34.70;;;;;;4983334;28;44772;-82
2023/12/23 15:37:11;;;;;;;1.15;0.32;;;22.30;34.70;;;;;;4971429;28;46221;-82
2023/12/23 15:39:37;;;;;;;0.52;0.30;;;22.30;34.70;;;;;;5009060;28;45164;-82
2023/12/23 15:42:04;;;;;;;0.32;0.22;;;22.30;34.80;;;;;;4984905;28;45429;-82
2023/12/23 15:44:32;;;;;;;0.80;0.33;;;22.30;34.70;;;;;;5023778;28;45951;-82
2023/12/23 15:46:58;;;;;;;0.50;0.20;;;22.30;34.70;;;;;;4997996;28;46232;-82
2023/12/23 15:49:24;;;;;;;0.30;0.25;;;22.30;34.80;;;;;;4983964;28;45424;-82
2023/12/23 15:51:50;;;;;;;0.35;0.30;;;22.30;34.80;;;;;;4983830;28;45359;-82
2023/12/23 15:54:16;;;;;;;0.52;0.30;;;22.30;34.80;;;;;;4957873;28;45236;-81
2023/12/23 15:56:42;;;;;;;1.42;0.30;;;22.20;34.80;;;;;;5001000;28;46480;-82
2023/12/23 15:59:07;;;;;;;1.80;0.30;;;22.30;34.70;;;;;;4973506;28;45724;-82
2023/12/23 16:01:34;;;;;;;1.20;0.30;;;22.30;34.70;;;;;;4975356;28;45337;-82
2023/12/23 16:04:00;;;;;;;1.63;0.63;;;22.30;34.70;;;;;;4953639;28;44902;-82
2023/12/23 16:06:26;;;;;;;2.38;1.13;;;22.30;34.70;;;;;;4950046;28;45914;-82
2023/12/23 16:08:52;;;;;;;2.67;2.20;;;22.30;34.80;;;;;;4968087;28;45364;-82
2023/12/23 16:11:18;;;;;;;3.20;2.47;;;22.30;34.80;;;;;;4980433;28;46321;-82
2023/12/23 16:13:47;;;;;;;3.47;2.50;;;22.30;34.90;;;;;;4970313;28;45220;-82
2023/12/23 16:16:16;;;;;;;3.58;2.40;;;22.20;34.90;;;;;;4945063;28;46394;-81
2023/12/23 16:18:42;;;;;;;2.58;1.98;;;22.30;34.90;;;;;;4982220;28;46575;-82
2023/12/23 16:21:08;;;;;;;2.42;1.88;;;22.30;34.80;;;;;;4982096;28;45565;-82
2023/12/23 16:23:34;;;;;;;1.97;1.47;;;22.30;34.80;;;;;;4970273;28;45475;-82
2023/12/23 16:26:00;;;;;;;1.90;1.48;;;22.30;34.80;;;;;;4963799;28;45728;-82
2023/12/23 16:28:25;;;;;;;2.07;1.13;;;22.30;34.80;;;;;;4986735;28;46271;-82
2023/12/23 16:30:51;;;;;;;2.97;1.27;;;22.30;34.80;;;;;;4966199;28;45561;-81
2023/12/23 16:33:17;;;;;;;1.30;1.00;;;22.30;34.80;;;;;;4970978;28;45417;-82
2023/12/23 16:35:44;;;;;;;2.60;1.00;;;22.40;34.90;;;;;;4960430;28;46309;-82
2023/12/23 16:38:09;;;;;;;1.38;0.93;;;22.30;34.90;;;;;;4991789;28;45391;-82
2023/12/23 16:40:35;;;;;;;1.00;0.70;;;22.30;34.90;;;;;;4974342;28;45265;-82
2023/12/23 16:43:01;;;;;;;1.50;1.00;;;22.30;34.90;;;;;;5005984;28;44751;-82
2023/12/23 16:45:27;;;;;;;0.90;0.80;;;22.30;34.90;;;;;;4999892;28;47182;-80
2023/12/23 16:47:53;;;;;;;0.93;0.63;;;22.40;34.90;;;;;;4988765;28;44934;-83
2023/12/23 16:50:19;;;;;;;1.20;0.88;;;22.40;34.90;;;;;;4998276;28;45462;-82
2023/12/23 16:52:45;;;;;;;1.10;0.70;;;22.40;34.90;;;;;;4984806;28;45223;-82
2023/12/23 16:55:11;;;;;;;1.33;0.75;;;22.50;35.00;;;;;;4968985;28;47235;-82
2023/12/23 16:57:37;;;;;;;0.80;0.63;;;22.50;35.00;;;;;;4986965;28;45376;-82
2023/12/23 17:00:04;;;;;;;1.23;0.80;;;22.50;35.00;;;;;;4956978;28;45587;-85
2023/12/23 17:02:33;;;;;;;0.97;0.70;;;22.50;34.90;;;;;;4968346;28;44928;-80
2023/12/23 17:04:59;;;;;;;0.88;0.88;;;22.50;34.90;;;;;;4981961;28;46324;-81
2023/12/23 17:07:25;;;;;;;0.82;0.80;;;22.50;34.90;;;;;;4988596;28;45458;-84
2023/12/23 17:09:51;;;;;;;2.15;0.95;;;22.50;35.00;;;;;;4986690;28;45419;-82